PWSweather.com
Personal Weather Stations
Station Observations
KKSTOPEK1
South Central , Topeka, KS 66611

South Central Topeka, KS 66611

Lat: 39.03, Lon: -95.71

Elevation: 945

Station Type: Davis Vantage Vue

http://http://tallgrasspixels.net/weather/index.php

High Low Average
Temperature 86.6°F30.3°F 70.0°F21.1°F 75.8°F24.3°F
Dew Point 74.6°F23.7°F 69.0°F20.6°F 71.3°F21.8°F
Winds 2.4 mph NE3.9 mph NE Calm Calm 0.3 mph 0.5 mph
Wind Gusts 11.0 mph17.7 mph -- 0.8 mph1.3 mph
Humidity 97% 64% 87%
Pressure 29.94 in1013.90 in 29.85 in1010.80 in -
Precipitation 0.30 in7.60 in - -
Hour Temp Dew Point Humidity Winds Wind Gusts Pressure Precip Precip Rate Daily Precip Total
12:00 AM 77.5°F25.3°C 71.6°F22.0°C 82% Calm Calm -- 29.86 in1011.2 mb - 0.00 in0.0 mm 0.00 in0.0 mm
12:10 AM 77.1°F25.1°C 71.6°F22.0°C 83% Calm Calm -- 29.86 in1011.2 mb - 0.00 in0.0 mm 0.00 in0.0 mm
12:20 AM 76.9°F24.9°C 71.3°F21.8°C 83% Calm Calm -- 29.87 in1011.5 mb - 0.00 in0.0 mm 0.00 in0.0 mm
12:30 AM 76.6°F24.8°C 71.4°F21.9°C 84% Calm Calm -- 29.87 in1011.5 mb - 0.00 in0.0 mm 0.00 in0.0 mm
12:40 AM 76.1°F24.5°C 71.3°F21.8°C 85% Calm Calm -- 29.87 in1011.5 mb - 0.00 in0.0 mm 0.00 in0.0 mm
12:50 AM 75.9°F24.4°C 71.4°F21.9°C 86% Calm Calm -- 29.86 in1011.2 mb - 0.00 in0.0 mm 0.00 in0.0 mm
01:00 AM 75.6°F24.2°C 71.1°F21.7°C 86% Calm Calm -- 29.86 in1011.2 mb - 0.00 in0.0 mm 0.00 in0.0 mm
01:10 AM 75.2°F24.0°C 71.1°F21.7°C 87% Calm Calm -- 29.86 in1011.2 mb - 0.00 in0.0 mm 0.00 in0.0 mm
01:20 AM 75.1°F23.9°C 71.3°F21.8°C 88% Calm Calm -- 29.86 in1011.2 mb - 0.00 in0.0 mm 0.00 in0.0 mm
01:30 AM 75.0°F23.9°C 71.2°F21.8°C 88% Calm Calm -- 29.86 in1011.2 mb - 0.00 in0.0 mm 0.00 in0.0 mm
01:40 AM 74.9°F23.8°C 71.1°F21.7°C 88% Calm Calm -- 29.86 in1011.2 mb - 0.00 in0.0 mm 0.00 in0.0 mm
01:50 AM 74.6°F23.7°C 70.8°F21.6°C 88% Calm Calm -- 29.86 in1011.2 mb - 0.00 in0.0 mm 0.00 in0.0 mm
02:00 AM 74.3°F23.5°C 70.9°F21.6°C 89% Calm Calm -- 29.86 in1011.2 mb - 0.00 in0.0 mm 0.00 in0.0 mm
02:10 AM 74.2°F23.4°C 71.0°F21.7°C 90% Calm Calm -- 29.86 in1011.2 mb - 0.00 in0.0 mm 0.00 in0.0 mm
02:20 AM 73.8°F23.2°C 70.7°F21.5°C 90% Calm Calm -- 29.86 in1011.2 mb - 0.00 in0.0 mm 0.00 in0.0 mm
02:30 AM 73.7°F23.2°C 70.9°F21.6°C 91% Calm Calm -- 29.86 in1011.2 mb - 0.00 in0.0 mm 0.00 in0.0 mm
02:40 AM 73.6°F23.1°C 70.8°F21.6°C 91% Calm Calm -- 29.86 in1011.2 mb - 0.00 in0.0 mm 0.00 in0.0 mm
02:50 AM 73.3°F22.9°C 70.8°F21.6°C 92% Calm Calm -- 29.86 in1011.2 mb - 0.00 in0.0 mm 0.00 in0.0 mm
03:00 AM 73.1°F22.8°C 70.6°F21.4°C 92% Calm Calm -- 29.85 in1010.8 mb - 0.00 in0.0 mm 0.00 in0.0 mm
03:10 AM 73.0°F22.8°C 70.5°F21.4°C 92% Calm Calm -- 29.85 in1010.8 mb - 0.00 in0.0 mm 0.00 in0.0 mm
03:20 AM 72.7°F22.6°C 70.6°F21.4°C 93% Calm Calm -- 29.85 in1010.8 mb - 0.00 in0.0 mm 0.00 in0.0 mm
03:30 AM 72.6°F22.6°C 70.5°F21.4°C 93% Calm Calm -- 29.85 in1010.8 mb - 0.00 in0.0 mm 0.00 in0.0 mm
03:40 AM 72.5°F22.5°C 70.7°F21.5°C 94% Calm Calm -- 29.85 in1010.8 mb - 0.00 in0.0 mm 0.00 in0.0 mm
03:50 AM 72.2°F22.3°C 70.4°F21.3°C 94% Calm Calm -- 29.85 in1010.8 mb - 0.00 in0.0 mm 0.00 in0.0 mm
04:00 AM 72.1°F22.3°C 70.3°F21.3°C 94% Calm Calm -- 29.85 in1010.8 mb - 0.00 in0.0 mm 0.00 in0.0 mm
04:10 AM 72.2°F22.3°C 70.7°F21.5°C 95% Calm Calm -- 29.85 in1010.8 mb - 0.00 in0.0 mm 0.00 in0.0 mm
04:20 AM 72.2°F22.3°C 70.6°F21.4°C 95% Calm Calm -- 29.85 in1010.8 mb - 0.00 in0.0 mm 0.00 in0.0 mm
04:30 AM 72.1°F22.3°C 70.6°F21.4°C 95% Calm Calm -- 29.85 in1010.8 mb - 0.00 in0.0 mm 0.00 in0.0 mm
04:40 AM 72.0°F22.2°C 70.4°F21.3°C 95% Calm Calm -- 29.85 in1010.8 mb - 0.00 in0.0 mm 0.00 in0.0 mm
04:50 AM 71.8°F22.1°C 70.3°F21.3°C 95% Calm Calm -- 29.85 in1010.8 mb - 0.00 in0.0 mm 0.00 in0.0 mm
05:00 AM 71.6°F22.0°C 70.1°F21.2°C 95% Calm Calm -- 29.86 in1011.2 mb - 0.00 in0.0 mm 0.00 in0.0 mm
05:10 AM 71.6°F22.0°C 70.1°F21.2°C 95% Calm Calm -- 29.86 in1011.2 mb - 0.00 in0.0 mm 0.00 in0.0 mm
05:20 AM 71.6°F22.0°C 70.1°F21.2°C 95% Calm Calm -- 29.86 in1011.2 mb - 0.00 in0.0 mm 0.00 in0.0 mm
05:30 AM 71.6°F22.0°C 70.1°F21.2°C 95% Calm Calm -- 29.87 in1011.5 mb - 0.00 in0.0 mm 0.00 in0.0 mm
05:40 AM 71.4°F21.9°C 69.9°F21.1°C 95% Calm Calm -- 29.87 in1011.5 mb - 0.00 in0.0 mm 0.00 in0.0 mm
05:50 AM 71.4°F21.9°C 70.2°F21.2°C 96% Calm Calm -- 29.88 in1011.9 mb - 0.00 in0.0 mm 0.00 in0.0 mm
06:00 AM 71.4°F21.9°C 69.9°F21.1°C 95% Calm Calm -- 29.88 in1011.9 mb - 0.00 in0.0 mm 0.00 in0.0 mm
06:10 AM 71.2°F21.8°C 69.7°F20.9°C 95% Calm Calm -- 29.88 in1011.9 mb - 0.00 in0.0 mm 0.00 in0.0 mm
06:20 AM 71.4°F21.9°C 69.8°F21.0°C 95% Calm Calm -- 29.88 in1011.9 mb - 0.00 in0.0 mm 0.00 in0.0 mm
06:30 AM 71.3°F21.8°C 69.8°F21.0°C 95% Calm Calm -- 29.89 in1012.2 mb - 0.00 in0.0 mm 0.00 in0.0 mm
06:40 AM 71.6°F22.0°C 69.8°F21.0°C 94% Calm Calm -- 29.90 in1012.5 mb - 0.00 in0.0 mm 0.00 in0.0 mm
06:50 AM 71.9°F22.2°C 69.8°F21.0°C 93% Calm Calm -- 29.91 in1012.9 mb - 0.00 in0.0 mm 0.00 in0.0 mm
07:00 AM 72.1°F22.3°C 70.0°F21.1°C 93% Calm Calm 1.0 mph1.6 kmh 29.90 in1012.5 mb - 0.00 in0.0 mm 0.00 in0.0 mm
07:10 AM 72.3°F22.4°C 70.2°F21.2°C 93% Calm Calm -- 29.90 in1012.5 mb - 0.00 in0.0 mm 0.00 in0.0 mm
07:20 AM 72.5°F22.5°C 70.4°F21.3°C 93% Calm Calm -- 29.90 in1012.5 mb - 0.00 in0.0 mm 0.00 in0.0 mm
07:30 AM 72.8°F22.7°C 70.7°F21.5°C 93% Calm Calm -- 29.90 in1012.5 mb - 0.00 in0.0 mm 0.00 in0.0 mm
07:40 AM 73.3°F22.9°C 70.8°F21.6°C 92% Calm Calm -- 29.89 in1012.2 mb - 0.00 in0.0 mm 0.00 in0.0 mm
07:50 AM 73.8°F23.2°C 71.0°F21.7°C 91% Calm Calm -- 29.89 in1012.2 mb - 0.00 in0.0 mm 0.00 in0.0 mm
08:00 AM 75.0°F23.9°C 71.5°F21.9°C 89% Calm Calm -- 29.89 in1012.2 mb - 0.00 in0.0 mm 0.00 in0.0 mm
08:10 AM 75.9°F24.4°C 71.0°F21.7°C 85% Calm Calm -- 29.89 in1012.2 mb - 0.00 in0.0 mm 0.00 in0.0 mm
08:20 AM 76.7°F24.8°C 71.5°F21.9°C 84% Calm Calm -- 29.89 in1012.2 mb - 0.00 in0.0 mm 0.00 in0.0 mm
08:30 AM 77.2°F25.1°C 71.2°F21.8°C 82% 1.0 mph WSW1.6 kmh WSW 1.0 mph1.6 kmh 29.89 in1012.2 mb - 0.00 in0.0 mm 0.00 in0.0 mm
08:40 AM 77.7°F25.4°C 71.4°F21.9°C 81% 0.1 mph SE0.2 kmh SE 1.0 mph1.6 kmh 29.89 in1012.2 mb - 0.00 in0.0 mm 0.00 in0.0 mm
08:50 AM 78.1°F25.6°C 72.1°F22.3°C 82% Calm Calm -- 29.89 in1012.2 mb - 0.00 in0.0 mm 0.00 in0.0 mm
09:00 AM 78.5°F25.8°C 72.5°F22.5°C 82% Calm Calm 1.0 mph1.6 kmh 29.90 in1012.5 mb - 0.00 in0.0 mm 0.00 in0.0 mm
09:10 AM 78.5°F25.8°C 72.2°F22.3°C 81% 0.1 mph SE0.2 kmh SE 1.0 mph1.6 kmh 29.90 in1012.5 mb - 0.00 in0.0 mm 0.00 in0.0 mm
09:20 AM 78.7°F25.9°C 72.0°F22.2°C 80% Calm Calm -- 29.90 in1012.5 mb - 0.00 in0.0 mm 0.00 in0.0 mm
09:30 AM 79.0°F26.1°C 71.9°F22.2°C 79% Calm Calm -- 29.90 in1012.5 mb - 0.00 in0.0 mm 0.00 in0.0 mm
09:40 AM 79.4°F26.3°C 71.9°F22.2°C 78% Calm Calm -- 29.90 in1012.5 mb - 0.00 in0.0 mm 0.00 in0.0 mm
09:50 AM 79.9°F26.6°C 71.6°F22.0°C 76% Calm Calm -- 29.90 in1012.5 mb - 0.00 in0.0 mm 0.00 in0.0 mm
10:00 AM 80.7°F27.1°C 71.7°F22.1°C 74% Calm Calm -- 29.91 in1012.9 mb - 0.00 in0.0 mm 0.00 in0.0 mm
10:10 AM 81.2°F27.3°C 72.1°F22.3°C 74% Calm Calm -- 29.91 in1012.9 mb - 0.00 in0.0 mm 0.00 in0.0 mm
10:20 AM 81.4°F27.4°C 73.1°F22.8°C 76% Calm Calm -- 29.91 in1012.9 mb - 0.00 in0.0 mm 0.00 in0.0 mm
10:30 AM 81.6°F27.6°C 72.9°F22.7°C 75% Calm Calm -- 29.92 in1013.2 mb - 0.00 in0.0 mm 0.00 in0.0 mm
10:40 AM 81.7°F27.6°C 72.6°F22.6°C 74% 0.9 mph NNE1.4 kmh NNE 3.0 mph4.8 kmh 29.92 in1013.2 mb - 0.00 in0.0 mm 0.00 in0.0 mm
10:50 AM 82.0°F27.8°C 73.3°F22.9°C 75% Calm Calm -- 29.92 in1013.2 mb - 0.00 in0.0 mm 0.00 in0.0 mm
11:00 AM 82.4°F28.0°C 73.3°F22.9°C 74% Calm Calm -- 29.92 in1013.2 mb - 0.00 in0.0 mm 0.00 in0.0 mm
11:10 AM 82.8°F28.2°C 72.4°F22.4°C 71% 0.5 mph N0.8 kmh N 2.0 mph3.2 kmh 29.92 in1013.2 mb - 0.00 in0.0 mm 0.00 in0.0 mm
11:20 AM 82.8°F28.2°C 73.3°F22.9°C 73% 2.0 mph NE3.2 kmh NE 3.0 mph4.8 kmh 29.91 in1012.9 mb - 0.00 in0.0 mm 0.00 in0.0 mm
11:30 AM 83.3°F28.5°C 73.3°F22.9°C 72% 1.3 mph ENE2.1 kmh ENE 5.0 mph8.0 kmh 29.91 in1012.9 mb - 0.00 in0.0 mm 0.00 in0.0 mm
11:40 AM 83.2°F28.4°C 72.8°F22.7°C 71% 0.2 mph ESE0.3 kmh ESE 1.0 mph1.6 kmh 29.91 in1012.9 mb - 0.00 in0.0 mm 0.00 in0.0 mm
11:50 AM 84.0°F28.9°C 72.7°F22.6°C 69% 0.4 mph E0.6 kmh E 1.0 mph1.6 kmh 29.91 in1012.9 mb - 0.00 in0.0 mm 0.00 in0.0 mm
12:00 PM 84.3°F29.1°C 73.4°F23.0°C 70% 0.8 mph E1.3 kmh E 2.0 mph3.2 kmh 29.90 in1012.5 mb - 0.00 in0.0 mm 0.00 in0.0 mm
12:10 PM 85.3°F29.6°C 73.5°F23.1°C 68% 0.7 mph ESE1.1 kmh ESE 3.0 mph4.8 kmh 29.89 in1012.2 mb - 0.00 in0.0 mm 0.00 in0.0 mm
12:20 PM 86.0°F30.0°C 73.3°F22.9°C 66% 1.5 mph N2.4 kmh N 7.0 mph11.3 kmh 29.89 in1012.2 mb - 0.00 in0.0 mm 0.00 in0.0 mm
12:30 PM 85.6°F29.8°C 73.4°F23.0°C 67% 1.6 mph ESE2.6 kmh ESE 3.0 mph4.8 kmh 29.89 in1012.2 mb - 0.00 in0.0 mm 0.00 in0.0 mm
12:40 PM 85.5°F29.7°C 73.2°F22.9°C 67% 2.3 mph E3.7 kmh E 2.0 mph3.2 kmh 29.89 in1012.2 mb - 0.00 in0.0 mm 0.00 in0.0 mm
12:50 PM 86.2°F30.1°C 73.0°F22.8°C 65% 2.0 mph NE3.2 kmh NE 3.0 mph4.8 kmh 29.89 in1012.2 mb - 0.00 in0.0 mm 0.00 in0.0 mm
01:00 PM 86.5°F30.3°C 73.3°F22.9°C 65% 1.2 mph E1.9 kmh E 2.0 mph3.2 kmh 29.89 in1012.2 mb - 0.00 in0.0 mm 0.00 in0.0 mm
01:10 PM 86.6°F30.3°C 73.0°F22.8°C 64% 2.0 mph N3.2 kmh N 3.0 mph4.8 kmh 29.89 in1012.2 mb - 0.00 in0.0 mm 0.00 in0.0 mm
01:20 PM 86.2°F30.1°C 72.6°F22.6°C 64% 0.6 mph ESE1.0 kmh ESE 2.0 mph3.2 kmh 29.88 in1011.9 mb - 0.00 in0.0 mm 0.00 in0.0 mm
01:30 PM 85.8°F29.9°C 72.2°F22.3°C 64% 1.0 mph E1.6 kmh E 2.0 mph3.2 kmh 29.88 in1011.9 mb - 0.00 in0.0 mm 0.00 in0.0 mm
01:40 PM 85.3°F29.6°C 74.0°F23.3°C 69% 2.4 mph NE3.9 kmh NE 4.0 mph6.4 kmh 29.88 in1011.9 mb - 0.00 in0.0 mm 0.00 in0.0 mm
01:50 PM 84.6°F29.2°C 73.3°F22.9°C 69% 0.7 mph E1.1 kmh E 3.0 mph4.8 kmh 29.87 in1011.5 mb - 0.00 in0.0 mm 0.00 in0.0 mm
02:00 PM 84.3°F29.1°C 73.4°F23.0°C 70% 1.1 mph E1.8 kmh E 2.0 mph3.2 kmh 29.87 in1011.5 mb - 0.00 in0.0 mm 0.00 in0.0 mm
02:10 PM 84.5°F29.2°C 73.6°F23.1°C 70% 0.4 mph E0.6 kmh E 2.0 mph3.2 kmh 29.87 in1011.5 mb - 0.00 in0.0 mm 0.00 in0.0 mm
02:20 PM 85.0°F29.4°C 74.6°F23.7°C 71% 0.4 mph NE0.6 kmh NE 1.0 mph1.6 kmh 29.87 in1011.5 mb - 0.00 in0.0 mm 0.00 in0.0 mm
02:30 PM 85.2°F29.6°C 73.4°F23.0°C 68% 0.7 mph E1.1 kmh E 2.0 mph3.2 kmh 29.87 in1011.5 mb - 0.00 in0.0 mm 0.00 in0.0 mm
02:40 PM 85.5°F29.7°C 73.8°F23.2°C 68% 0.5 mph E0.8 kmh E 1.0 mph1.6 kmh 29.87 in1011.5 mb - 0.00 in0.0 mm 0.00 in0.0 mm
02:50 PM 85.0°F29.4°C 73.7°F23.2°C 69% 0.2 mph ESE0.3 kmh ESE 1.0 mph1.6 kmh 29.86 in1011.2 mb - 0.00 in0.0 mm 0.00 in0.0 mm
03:00 PM 84.2°F29.0°C 72.9°F22.7°C 69% 0.1 mph E0.2 kmh E -- 29.85 in1010.8 mb - 0.00 in0.0 mm 0.00 in0.0 mm
03:10 PM 84.1°F28.9°C 73.3°F22.9°C 70% 0.5 mph SE0.8 kmh SE 2.0 mph3.2 kmh 29.86 in1011.2 mb - 0.00 in0.0 mm 0.00 in0.0 mm
03:20 PM 84.0°F28.9°C 73.1°F22.8°C 70% 1.9 mph E3.1 kmh E 2.0 mph3.2 kmh 29.85 in1010.8 mb - 0.00 in0.0 mm 0.00 in0.0 mm
03:30 PM 83.5°F28.6°C 73.6°F23.1°C 72% 2.3 mph WSW3.7 kmh WSW 11.0 mph17.7 kmh 29.86 in1011.2 mb - 0.00 in0.0 mm 0.00 in0.0 mm
03:40 PM 77.1°F25.1°C 69.0°F20.6°C 76% 1.0 mph W1.6 kmh W 2.0 mph3.2 kmh 29.86 in1011.2 mb - 0.12 in3.0 mm 0.13 in3.3 mm
03:50 PM 73.9°F23.3°C 69.8°F21.0°C 87% 1.5 mph WSW2.4 kmh WSW 3.0 mph4.8 kmh 29.86 in1011.2 mb - 0.15 in3.8 mm 0.25 in6.4 mm
04:00 PM 73.2°F22.9°C 70.1°F21.2°C 90% 1.7 mph NE2.7 kmh NE 4.0 mph6.4 kmh 29.88 in1011.9 mb - 0.02 in0.5 mm 0.26 in6.6 mm
04:10 PM 72.9°F22.7°C 70.5°F21.4°C 92% Calm Calm -- 29.89 in1012.2 mb - 0.00 in0.0 mm 0.26 in6.6 mm
04:20 PM 72.9°F22.7°C 70.4°F21.3°C 92% 0.4 mph WSW0.6 kmh WSW 1.0 mph1.6 kmh 29.88 in1011.9 mb - 0.00 in0.0 mm 0.26 in6.6 mm
04:30 PM 72.9°F22.7°C 70.8°F21.6°C 93% Calm Calm -- 29.89 in1012.2 mb - 0.00 in0.0 mm 0.26 in6.6 mm
04:40 PM 73.2°F22.9°C 71.4°F21.9°C 94% Calm Calm -- 29.90 in1012.5 mb - 0.00 in0.0 mm 0.26 in6.6 mm
04:50 PM 73.3°F22.9°C 71.5°F21.9°C 94% Calm Calm -- 29.90 in1012.5 mb - 0.00 in0.0 mm 0.26 in6.6 mm
05:00 PM 73.7°F23.2°C 72.2°F22.3°C 95% Calm Calm -- 29.91 in1012.9 mb - 0.00 in0.0 mm 0.26 in6.6 mm
05:10 PM 73.9°F23.3°C 72.4°F22.4°C 95% Calm Calm 1.0 mph1.6 kmh 29.92 in1013.2 mb - 0.00 in0.0 mm 0.26 in6.6 mm
05:20 PM 73.5°F23.1°C 71.7°F22.1°C 94% Calm Calm -- 29.92 in1013.2 mb - 0.00 in0.0 mm 0.26 in6.6 mm
05:30 PM 73.0°F22.8°C 71.2°F21.8°C 94% Calm Calm -- 29.93 in1013.5 mb - 0.00 in0.0 mm 0.26 in6.6 mm
05:40 PM 73.0°F22.8°C 71.2°F21.8°C 94% Calm Calm -- 29.93 in1013.5 mb - 0.00 in0.0 mm 0.26 in6.6 mm
05:50 PM 72.8°F22.7°C 71.0°F21.7°C 94% 0.1 mph NNE0.2 kmh NNE 1.0 mph1.6 kmh 29.94 in1013.9 mb - 0.00 in0.0 mm 0.26 in6.6 mm
06:00 PM 72.8°F22.7°C 71.3°F21.8°C 95% Calm Calm -- 29.94 in1013.9 mb - 0.00 in0.0 mm 0.26 in6.6 mm
06:10 PM 72.9°F22.7°C 71.4°F21.9°C 95% Calm Calm -- 29.93 in1013.5 mb - 0.00 in0.0 mm 0.26 in6.6 mm
06:20 PM 73.0°F22.8°C 71.5°F21.9°C 95% Calm Calm 1.0 mph1.6 kmh 29.94 in1013.9 mb - 0.00 in0.0 mm 0.26 in6.6 mm
06:30 PM 73.1°F22.8°C 71.9°F22.2°C 96% Calm Calm 1.0 mph1.6 kmh 29.93 in1013.5 mb - 0.00 in0.0 mm 0.26 in6.6 mm
06:40 PM 73.0°F22.8°C 71.5°F21.9°C 95% 0.5 mph E0.8 kmh E 1.0 mph1.6 kmh 29.93 in1013.5 mb - 0.00 in0.0 mm 0.26 in6.6 mm
06:50 PM 73.0°F22.8°C 71.5°F21.9°C 95% 0.7 mph E1.1 kmh E 1.0 mph1.6 kmh 29.92 in1013.2 mb - 0.00 in0.0 mm 0.26 in6.6 mm
07:00 PM 73.0°F22.8°C 71.5°F21.9°C 95% 0.9 mph E1.4 kmh E 1.0 mph1.6 kmh 29.91 in1012.9 mb - 0.00 in0.0 mm 0.26 in6.6 mm
07:10 PM 72.9°F22.7°C 71.7°F22.1°C 96% 0.3 mph E0.5 kmh E 2.0 mph3.2 kmh 29.90 in1012.5 mb - 0.00 in0.0 mm 0.26 in6.6 mm
07:20 PM 72.9°F22.7°C 71.4°F21.9°C 95% 0.1 mph E0.2 kmh E 1.0 mph1.6 kmh 29.89 in1012.2 mb - 0.00 in0.0 mm 0.26 in6.6 mm
07:30 PM 72.9°F22.7°C 71.4°F21.9°C 95% 0.2 mph ESE0.3 kmh ESE 1.0 mph1.6 kmh 29.89 in1012.2 mb - 0.00 in0.0 mm 0.26 in6.6 mm
07:40 PM 72.8°F22.7°C 71.3°F21.8°C 95% 0.6 mph SE1.0 kmh SE 1.0 mph1.6 kmh 29.89 in1012.2 mb - 0.00 in0.0 mm 0.26 in6.6 mm
07:50 PM 72.7°F22.6°C 70.9°F21.6°C 94% 0.3 mph ESE0.5 kmh ESE 1.0 mph1.6 kmh 29.89 in1012.2 mb - 0.00 in0.0 mm 0.26 in6.6 mm
08:00 PM 72.7°F22.6°C 70.9°F21.6°C 94% 0.6 mph E1.0 kmh E 2.0 mph3.2 kmh 29.88 in1011.9 mb - 0.00 in0.0 mm 0.26 in6.6 mm
08:10 PM 72.6°F22.6°C 70.8°F21.6°C 94% 0.6 mph E1.0 kmh E 1.0 mph1.6 kmh 29.88 in1011.9 mb - 0.00 in0.0 mm 0.26 in6.6 mm
08:20 PM 72.4°F22.4°C 70.6°F21.4°C 94% 0.1 mph E0.2 kmh E -- 29.88 in1011.9 mb - 0.01 in0.3 mm 0.27 in6.9 mm
08:30 PM 72.3°F22.4°C 70.8°F21.6°C 95% Calm Calm -- 29.89 in1012.2 mb - 0.00 in0.0 mm 0.27 in6.9 mm
08:40 PM 72.1°F22.3°C 70.6°F21.4°C 95% Calm Calm -- 29.89 in1012.2 mb - 0.00 in0.0 mm 0.27 in6.9 mm
08:50 PM 71.9°F22.2°C 70.4°F21.3°C 95% Calm Calm -- 29.89 in1012.2 mb - 0.00 in0.0 mm 0.27 in6.9 mm
09:00 PM 71.6°F22.0°C 70.1°F21.2°C 95% Calm Calm -- 29.90 in1012.5 mb - 0.00 in0.0 mm 0.27 in6.9 mm
09:10 PM 71.4°F21.9°C 70.2°F21.2°C 96% Calm Calm -- 29.90 in1012.5 mb - 0.00 in0.0 mm 0.27 in6.9 mm
09:20 PM 71.1°F21.7°C 69.9°F21.1°C 96% Calm Calm -- 29.91 in1012.9 mb - 0.00 in0.0 mm 0.27 in6.9 mm
09:30 PM 71.0°F21.7°C 69.8°F21.0°C 96% Calm Calm -- 29.91 in1012.9 mb - 0.00 in0.0 mm 0.27 in6.9 mm
09:40 PM 70.8°F21.6°C 69.6°F20.9°C 96% Calm Calm -- 29.90 in1012.5 mb - 0.00 in0.0 mm 0.27 in6.9 mm
09:50 PM 70.8°F21.6°C 69.9°F21.1°C 97% Calm Calm -- 29.91 in1012.9 mb - 0.00 in0.0 mm 0.27 in6.9 mm
10:00 PM 70.7°F21.5°C 69.5°F20.8°C 96% Calm Calm -- 29.91 in1012.9 mb - 0.00 in0.0 mm 0.27 in6.9 mm
10:10 PM 70.5°F21.4°C 69.7°F20.9°C 97% Calm Calm -- 29.91 in1012.9 mb - 0.00 in0.0 mm 0.27 in6.9 mm
10:20 PM 70.5°F21.4°C 69.6°F20.9°C 97% 0.2 mph E0.3 kmh E 1.0 mph1.6 kmh 29.91 in1012.9 mb - 0.00 in0.0 mm 0.27 in6.9 mm
10:30 PM 70.5°F21.4°C 69.6°F20.9°C 97% Calm Calm -- 29.92 in1013.2 mb - 0.00 in0.0 mm 0.27 in6.9 mm
10:40 PM 70.4°F21.3°C 69.5°F20.8°C 97% Calm Calm -- 29.92 in1013.2 mb - 0.00 in0.0 mm 0.27 in6.9 mm
10:50 PM 70.3°F21.3°C 69.4°F20.8°C 97% Calm Calm -- 29.91 in1012.9 mb - 0.00 in0.0 mm 0.27 in6.9 mm
11:00 PM 70.2°F21.2°C 69.3°F20.7°C 97% Calm Calm -- 29.91 in1012.9 mb - 0.00 in0.0 mm 0.27 in6.9 mm
11:10 PM 70.1°F21.2°C 69.2°F20.7°C 97% Calm Calm -- 29.91 in1012.9 mb - 0.00 in0.0 mm 0.27 in6.9 mm
11:20 PM 70.0°F21.1°C 69.1°F20.6°C 97% Calm Calm -- 29.91 in1012.9 mb - 0.00 in0.0 mm 0.27 in6.9 mm
11:30 PM 70.2°F21.2°C 69.3°F20.7°C 97% Calm Calm -- 29.90 in1012.5 mb - 0.00 in0.0 mm 0.27 in6.9 mm
11:40 PM 70.1°F21.2°C 69.2°F20.7°C 97% Calm Calm -- 29.91 in1012.9 mb - 0.00 in0.0 mm 0.27 in6.9 mm
11:50 PM 70.2°F21.2°C 69.3°F20.7°C 97% 0.1 mph E0.2 kmh E 1.0 mph1.6 kmh 29.91 in1012.9 mb - 0.00 in0.0 mm 0.27 in6.9 mm